Time;durP1;ratioP1;P1;durP2;ratioP2;P2;SDS_P1;SDS_P2;PMS_P1;PMS_P2;Temp;Humidity;BMP_temperature;BMP_pressure;BME280_temperature;BME280_humidity;BME280_pressure;Samples;Min_cycle;Max_cycle;Signal;HPM_P1;HPM_P2
2023/08/15 00:00:36;;;;;;;4.50;3.92;;;25.50;64.10;;;;;;5032573;28;20450;-49
2023/08/15 00:03:07;;;;;;;4.35;3.60;;;25.50;63.90;;;;;;5028936;28;20488;-54
2023/08/15 00:05:36;;;;;;;4.85;3.72;;;25.50;63.80;;;;;;5030347;28;20037;-53
2023/08/15 00:08:08;;;;;;;3.75;3.45;;;25.50;63.80;;;;;;5031341;28;20056;-53
2023/08/15 00:10:34;;;;;;;3.72;3.42;;;25.60;63.90;;;;;;5034556;28;20077;-53
2023/08/15 00:13:03;;;;;;;4.95;4.30;;;25.60;63.60;;;;;;5029045;28;20056;-52
2023/08/15 00:15:34;;;;;;;4.05;3.65;;;25.60;63.70;;;;;;5034345;28;20474;-51
2023/08/15 00:18:01;;;;;;;3.78;3.47;;;25.60;63.80;;;;;;5014799;28;20069;-53
2023/08/15 00:20:30;;;;;;;4.10;3.80;;;25.50;63.70;;;;;;5028753;28;20876;-53
2023/08/15 00:22:57;;;;;;;5.10;4.22;;;25.60;63.80;;;;;;5028746;28;20072;-54
2023/08/15 00:25:24;;;;;;;5.30;3.78;;;25.50;63.80;;;;;;5034668;28;20072;-50
2023/08/15 00:27:50;;;;;;;4.18;3.65;;;25.60;63.90;;;;;;5029039;28;20068;-54
2023/08/15 00:30:20;;;;;;;4.25;3.85;;;25.50;63.90;;;;;;5031165;28;20522;-50
2023/08/15 00:32:49;;;;;;;4.13;3.72;;;25.60;64.10;;;;;;5006938;28;20038;-53
2023/08/15 00:35:22;;;;;;;4.13;3.83;;;25.50;64.10;;;;;;5013941;28;20049;-54
2023/08/15 00:37:49;;;;;;;3.83;3.50;;;25.60;64.20;;;;;;5011292;28;20528;-55
2023/08/15 00:40:16;;;;;;;7.18;4.60;;;25.60;64.10;;;;;;5030571;28;20033;-55
2023/08/15 00:42:45;;;;;;;3.95;3.58;;;25.60;64.10;;;;;;5010914;28;20336;-54
2023/08/15 00:45:20;;;;;;;4.68;4.28;;;25.50;64.00;;;;;;5007977;28;20033;-54
2023/08/15 00:47:49;;;;;;;3.95;3.55;;;25.60;64.60;;;;;;5011177;28;20125;-52
2023/08/15 00:50:23;;;;;;;5.00;3.90;;;25.60;64.20;;;;;;5028254;28;20052;-54
2023/08/15 00:52:53;;;;;;;4.72;3.50;;;25.60;64.70;;;;;;5029133;28;20045;-54
2023/08/15 00:55:22;;;;;;;4.75;3.70;;;25.50;64.40;;;;;;5015132;28;20129;-54
2023/08/15 00:57:52;;;;;;;4.65;3.63;;;25.50;64.60;;;;;;5009017;28;20753;-53
2023/08/15 01:00:21;;;;;;;4.30;3.80;;;25.50;64.70;;;;;;5013433;28;20205;-54
2023/08/15 01:02:48;;;;;;;4.30;3.90;;;25.60;64.70;;;;;;5006967;28;20125;-51
2023/08/15 01:05:16;;;;;;;3.92;3.63;;;25.50;65.20;;;;;;5011503;28;20060;-50
2023/08/15 01:07:45;;;;;;;4.00;3.63;;;25.60;64.60;;;;;;5007864;28;20088;-50
2023/08/15 01:10:14;;;;;;;4.80;4.00;;;25.60;64.60;;;;;;5029375;28;20128;-54
2023/08/15 01:12:52;;;;;;;4.40;3.47;;;25.60;64.70;;;;;;5026619;28;20072;-51
2023/08/15 01:15:26;;;;;;;4.40;4.00;;;25.60;65.10;;;;;;5014601;28;20141;-50
2023/08/15 01:18:07;;;;;;;3.65;3.35;;;25.60;65.10;;;;;;5008209;28;20408;-53
2023/08/15 01:20:36;;;;;;;4.80;4.10;;;25.60;65.10;;;;;;5033348;28;20348;-54
2023/08/15 01:23:07;;;;;;;5.60;3.88;;;25.60;65.10;;;;;;5031903;28;20048;-53
2023/08/15 01:25:42;;;;;;;4.20;3.80;;;25.60;65.00;;;;;;5036057;28;20041;-50
2023/08/15 01:28:14;;;;;;;4.37;3.50;;;25.60;65.20;;;;;;5031105;28;20037;-51
2023/08/15 01:30:59;;;;;;;4.40;4.00;;;25.60;65.20;;;;;;5032568;28;20371;-53
2023/08/15 01:33:45;;;;;;;4.30;4.00;;;25.60;65.80;;;;;;5031169;28;20587;-53
2023/08/15 01:36:22;;;;;;;4.78;3.83;;;25.70;65.60;;;;;;5033160;28;20057;-55
2023/08/15 01:38:59;;;;;;;4.93;3.75;;;25.70;65.30;;;;;;5015468;28;20073;-53
2023/08/15 01:41:31;;;;;;;4.95;3.65;;;25.70;65.20;;;;;;5032652;28;20500;-50
2023/08/15 01:44:00;;;;;;;5.68;4.05;;;25.70;65.40;;;;;;5011564;28;20504;-50
2023/08/15 01:46:32;;;;;;;4.38;3.80;;;25.70;65.00;;;;;;5037713;28;20163;-54
2023/08/15 01:49:01;;;;;;;;;;;25.70;65.10;;;;;;5032598;28;20045;-54
2023/08/15 01:51:28;;;;;;;3.90;3.60;;;25.80;64.40;;;;;;5014783;28;19956;-53
2023/08/15 01:53:59;;;;;;;6.05;4.18;;;25.70;64.60;;;;;;5035965;28;20084;-54
2023/08/15 01:56:26;;;;;;;4.97;3.53;;;25.70;64.90;;;;;;5034212;28;20065;-54
2023/08/15 01:58:53;;;;;;;5.72;3.88;;;25.70;64.90;;;;;;5032736;28;20038;-54
2023/08/15 02:01:25;;;;;;;4.53;4.13;;;25.70;65.00;;;;;;5015008;28;20041;-53
2023/08/15 02:03:54;;;;;;;3.88;3.45;;;25.70;65.10;;;;;;5013506;28;20131;-51
2023/08/15 02:06:21;;;;;;;3.67;3.45;;;25.70;65.10;;;;;;5031521;28;20049;-53
2023/08/15 02:08:47;;;;;;;4.82;3.92;;;25.70;64.90;;;;;;5004690;28;20558;-52
2023/08/15 02:11:16;;;;;;;4.97;4.13;;;25.70;65.00;;;;;;5031169;28;20073;-50
2023/08/15 02:13:43;;;;;;;3.70;3.40;;;25.70;64.90;;;;;;5010079;28;20053;-51
2023/08/15 02:16:12;;;;;;;6.47;3.92;;;25.70;65.00;;;;;;5028645;28;20548;-49
2023/08/15 02:18:39;;;;;;;5.28;4.18;;;25.70;65.20;;;;;;5032637;28;20049;-54
2023/08/15 02:21:10;;;;;;;6.55;4.05;;;25.70;65.40;;;;;;5012273;28;20686;-53
2023/08/15 02:23:44;;;;;;;4.57;4.18;;;25.80;66.00;;;;;;5012788;28;20037;-49
2023/08/15 02:26:10;;;;;;;;;;;25.70;66.00;;;;;;5036563;28;20034;-54
2023/08/15 02:28:41;;;;;;;5.78;4.10;;;25.70;65.10;;;;;;5033156;28;19959;-51
2023/08/15 02:31:10;;;;;;;8.45;4.00;;;25.70;65.20;;;;;;5039630;28;20860;-53
2023/08/15 02:33:39;;;;;;;7.57;4.25;;;25.70;65.60;;;;;;5012644;28;20096;-53
2023/08/15 02:36:09;;;;;;;4.68;4.22;;;25.70;65.80;;;;;;5033734;28;20503;-51
2023/08/15 02:38:39;;;;;;;4.85;4.15;;;25.70;66.20;;;;;;5030751;28;20655;-52
2023/08/15 02:41:06;;;;;;;5.40;4.05;;;25.60;66.40;;;;;;5013774;28;20041;-49
2023/08/15 02:43:33;;;;;;;5.07;4.65;;;25.60;66.70;;;;;;5030293;28;20045;-55
2023/08/15 02:46:03;;;;;;;4.35;3.95;;;25.60;67.00;;;;;;5012666;28;20033;-54
2023/08/15 02:48:30;;;;;;;5.43;4.72;;;25.50;67.10;;;;;;5030552;28;20049;-54
2023/08/15 02:51:00;;;;;;;8.10;4.72;;;25.40;67.40;;;;;;5031816;28;20120;-54
2023/08/15 02:53:31;;;;;;;4.75;4.30;;;25.40;67.80;;;;;;5026770;28;20049;-51
2023/08/15 02:55:57;;;;;;;6.25;4.50;;;25.40;67.50;;;;;;5007799;28;20085;-49
2023/08/15 02:58:25;;;;;;;4.70;4.20;;;25.30;67.70;;;;;;5012073;28;20127;-51
2023/08/15 03:00:51;;;;;;;5.10;4.25;;;25.30;68.00;;;;;;5016387;28;20069;-53
2023/08/15 03:03:18;;;;;;;5.10;4.13;;;25.30;68.30;;;;;;5030648;28;20049;-54
2023/08/15 03:05:45;;;;;;;6.25;4.70;;;25.20;68.40;;;;;;5030527;28;20037;-53
2023/08/15 03:08:13;;;;;;;5.20;4.15;;;25.20;68.30;;;;;;5008927;28;20081;-51
2023/08/15 03:10:42;;;;;;;5.88;4.07;;;25.10;68.30;;;;;;5031366;28;20033;-52
2023/08/15 03:13:10;;;;;;;6.90;4.82;;;25.10;68.60;;;;;;5012812;28;20069;-50
2023/08/15 03:15:39;;;;;;;5.55;4.50;;;25.10;68.70;;;;;;5013027;28;20080;-50
2023/08/15 03:18:16;;;;;;;6.80;4.75;;;25.10;68.80;;;;;;4991516;28;20522;-53
2023/08/15 03:20:54;;;;;;;7.30;5.25;;;25.10;69.10;;;;;;4997986;28;20046;-54
2023/08/15 03:23:21;;;;;;;5.07;4.57;;;25.00;69.70;;;;;;5015545;28;20265;-49
2023/08/15 03:26:02;;;;;;;5.05;4.25;;;25.00;69.20;;;;;;5009599;28;20045;-54
2023/08/15 03:28:35;;;;;;;5.93;4.35;;;25.00;69.80;;;;;;5028147;28;20058;-50
2023/08/15 03:31:09;;;;;;;6.30;4.88;;;24.90;69.10;;;;;;5025634;28;20477;-52
2023/08/15 03:33:46;;;;;;;5.75;4.38;;;24.90;69.20;;;;;;5003631;28;20059;-52
2023/08/15 03:36:16;;;;;;;6.53;4.40;;;24.90;68.80;;;;;;5013468;28;20049;-53
2023/08/15 03:38:43;;;;;;;4.82;4.03;;;24.90;68.80;;;;;;5006951;28;20045;-51
2023/08/15 03:41:09;;;;;;;7.38;4.00;;;24.90;67.50;;;;;;5029084;28;20557;-53
2023/08/15 03:46:19;;;;;;;3.17;2.47;;;25.00;64.30;;;;;;4995621;28;20053;-52
2023/08/15 03:48:50;;;;;;;5.30;2.65;;;24.70;63.90;;;;;;4997102;28;20046;-52
2023/08/15 03:51:18;;;;;;;2.97;2.45;;;24.60;64.10;;;;;;4998973;28;20070;-50
2023/08/15 03:54:08;;;;;;;4.90;2.88;;;24.50;64.20;;;;;;5019944;28;20044;-49
2023/08/15 03:56:37;;;;;;;;;;;24.50;63.90;;;;;;5010584;28;20070;-52
2023/08/15 03:59:04;;;;;;;2.45;2.20;;;24.50;63.80;;;;;;5010889;28;20379;-52
2023/08/15 04:01:35;;;;;;;5.10;2.80;;;24.40;63.90;;;;;;5008266;28;20042;-52
2023/08/15 04:04:04;;;;;;;3.13;2.75;;;24.30;63.80;;;;;;4989778;28;20042;-52
2023/08/15 04:06:40;;;;;;;4.18;2.60;;;24.20;63.70;;;;;;4992174;28;20056;-52
2023/08/15 04:09:18;;;;;;;3.63;2.45;;;24.20;63.80;;;;;;4990456;28;20092;-52
2023/08/15 04:11:44;;;;;;;3.55;2.75;;;24.10;64.10;;;;;;5011564;28;20042;-48
2023/08/15 04:14:14;;;;;;;4.63;2.38;;;24.00;64.40;;;;;;4991762;28;20097;-52
2023/08/15 04:16:45;;;;;;;4.75;2.78;;;24.00;64.70;;;;;;4988406;28;20072;-52
2023/08/15 04:19:25;;;;;;;3.92;2.45;;;23.90;64.30;;;;;;4988135;28;20046;-48
2023/08/15 04:21:51;;;;;;;4.53;2.50;;;23.80;64.40;;;;;;4992239;28;20104;-53
2023/08/15 04:24:23;;;;;;;3.15;2.33;;;23.80;64.30;;;;;;5012084;28;20046;-52
2023/08/15 04:26:50;;;;;;;3.10;2.33;;;23.70;64.10;;;;;;5010472;28;20048;-53
2023/08/15 04:29:17;;;;;;;4.68;2.75;;;23.70;63.90;;;;;;4990208;28;20768;-52
2023/08/15 04:31:43;;;;;;;3.88;2.53;;;23.60;64.20;;;;;;4999864;28;20141;-51
2023/08/15 04:34:10;;;;;;;3.58;2.28;;;23.60;64.10;;;;;;4990545;28;20060;-52
2023/08/15 04:36:43;;;;;;;3.25;2.40;;;23.40;64.10;;;;;;4990384;28;20486;-51
2023/08/15 04:39:10;;;;;;;6.70;2.67;;;23.40;64.20;;;;;;4974325;28;20042;-52
2023/08/15 04:41:37;;;;;;;5.78;2.95;;;23.30;64.30;;;;;;4992371;28;20042;-52
2023/08/15 04:44:05;;;;;;;3.15;2.38;;;23.30;64.90;;;;;;4992845;28;20120;-50
2023/08/15 04:46:31;;;;;;;3.45;3.15;;;23.30;64.90;;;;;;5009888;28;20050;-48
2023/08/15 04:48:58;;;;;;;7.65;3.00;;;23.20;64.80;;;;;;5011729;28;20085;-51
2023/08/15 04:51:25;;;;;;;3.38;2.70;;;23.20;64.80;;;;;;5010317;28;20504;-51
2023/08/15 04:53:51;;;;;;;5.85;2.58;;;23.20;64.90;;;;;;4992847;28;20104;-53
2023/08/15 04:56:18;;;;;;;7.05;3.38;;;23.20;65.00;;;;;;5007570;28;20135;-52
2023/08/15 04:58:45;;;;;;;4.00;2.70;;;23.10;64.90;;;;;;4987192;28;20030;-53
2023/08/15 05:01:12;;;;;;;4.38;2.67;;;23.10;65.10;;;;;;5005185;28;20046;-52
2023/08/15 05:03:39;;;;;;;4.43;2.90;;;23.00;65.10;;;;;;5001418;28;20109;-53
2023/08/15 05:06:06;;;;;;;5.00;2.97;;;23.00;65.10;;;;;;4988136;28;20050;-52
2023/08/15 05:08:34;;;;;;;5.68;2.78;;;23.00;65.40;;;;;;5007191;28;20099;-52
2023/08/15 05:11:02;;;;;;;4.78;2.95;;;23.00;65.40;;;;;;5007140;28;20523;-52
2023/08/15 05:13:29;;;;;;;5.22;2.90;;;22.90;65.30;;;;;;4990598;28;20042;-52
2023/08/15 05:15:55;;;;;;;4.38;2.63;;;22.90;65.40;;;;;;5007380;28;20103;-52
2023/08/15 05:18:22;;;;;;;5.82;3.20;;;22.90;65.50;;;;;;5000265;28;20052;-50
2023/08/15 05:20:49;;;;;;;3.50;2.60;;;22.90;65.50;;;;;;4975025;28;20041;-52
2023/08/15 05:23:16;;;;;;;5.68;3.17;;;22.80;65.60;;;;;;4984743;28;20038;-53
2023/08/15 05:25:43;;;;;;;7.13;3.08;;;22.80;65.70;;;;;;4990127;28;20096;-50
2023/08/15 05:28:11;;;;;;;3.83;3.22;;;22.80;65.70;;;;;;5008758;28;20042;-51
2023/08/15 05:30:39;;;;;;;3.78;3.10;;;22.80;65.80;;;;;;4983552;28;20037;-52
2023/08/15 05:33:06;;;;;;;15.90;4.03;;;22.80;66.00;;;;;;4988030;28;20046;-52
2023/08/15 05:35:34;;;;;;;5.15;2.72;;;22.70;66.00;;;;;;4992923;28;20591;-49
2023/08/15 05:38:01;;;;;;;6.60;2.92;;;22.80;66.30;;;;;;4987747;28;20053;-51
2023/08/15 05:40:28;;;;;;;4.75;2.72;;;22.70;66.30;;;;;;5007187;28;20058;-53
2023/08/15 05:42:55;;;;;;;3.38;2.60;;;22.70;66.20;;;;;;5006847;28;20507;-49
2023/08/15 05:45:21;;;;;;;4.63;3.22;;;22.70;66.40;;;;;;4989694;28;20106;-49
2023/08/15 05:47:48;;;;;;;4.93;2.80;;;22.70;66.50;;;;;;5010694;28;20463;-52
2023/08/15 05:50:15;;;;;;;5.35;3.30;;;22.70;66.70;;;;;;5006859;28;20416;-53
2023/08/15 05:52:41;;;;;;;4.80;2.50;;;22.70;66.90;;;;;;5003163;28;20116;-53
2023/08/15 05:55:08;;;;;;;4.05;2.78;;;22.70;67.10;;;;;;5010242;28;20038;-52
2023/08/15 05:57:35;;;;;;;5.10;2.95;;;22.80;67.40;;;;;;5010404;28;20054;-49
2023/08/15 06:00:02;;;;;;;7.55;3.00;;;22.80;67.20;;;;;;5008602;28;20121;-48
2023/08/15 06:02:39;;;;;;;4.38;2.75;;;22.80;67.20;;;;;;5011761;28;20049;-53
2023/08/15 06:05:07;;;;;;;5.22;2.65;;;22.90;67.30;;;;;;5011264;28;20034;-52
2023/08/15 06:07:33;;;;;;;4.72;3.53;;;22.90;67.00;;;;;;5014055;28;20050;-52
2023/08/15 06:10:00;;;;;;;4.45;3.13;;;22.90;66.90;;;;;;5010936;28;20046;-48
2023/08/15 06:12:27;;;;;;;4.95;2.70;;;22.90;67.10;;;;;;5011030;28;20073;-51
2023/08/15 06:14:53;;;;;;;4.55;3.05;;;22.90;66.90;;;;;;5011645;28;20578;-51
2023/08/15 06:17:20;;;;;;;4.45;2.67;;;22.90;66.90;;;;;;5012521;28;20081;-49
2023/08/15 06:19:47;;;;;;;3.60;2.70;;;23.00;67.00;;;;;;5009186;28;20073;-50
2023/08/15 06:22:15;;;;;;;3.28;2.55;;;23.00;67.00;;;;;;5010568;28;20076;-51
2023/08/15 06:24:41;;;;;;;3.83;2.67;;;23.00;67.10;;;;;;5005671;28;20038;-50
2023/08/15 06:27:08;;;;;;;5.88;3.13;;;23.00;67.20;;;;;;5010053;28;20120;-53
2023/08/15 06:29:35;;;;;;;4.50;3.08;;;23.00;67.00;;;;;;5014745;28;20053;-52
2023/08/15 06:32:01;;;;;;;4.15;2.72;;;23.00;66.70;;;;;;4996318;28;20046;-53
2023/08/15 06:34:28;;;;;;;3.33;3.00;;;23.00;66.40;;;;;;5000877;28;20100;-53
2023/08/15 06:36:55;;;;;;;4.30;3.08;;;23.00;66.30;;;;;;5007672;28;20117;-52
2023/08/15 06:39:22;;;;;;;5.32;3.13;;;23.10;66.50;;;;;;5002581;28;20092;-51
2023/08/15 06:41:48;;;;;;;5.45;2.80;;;23.10;66.50;;;;;;5000977;28;20662;-50
2023/08/15 06:44:15;;;;;;;4.93;3.17;;;23.10;66.60;;;;;;5010418;28;20045;-52
2023/08/15 06:46:43;;;;;;;9.02;3.20;;;23.10;66.70;;;;;;5010919;28;20837;-49
2023/08/15 06:49:09;;;;;;;7.43;3.28;;;23.10;66.60;;;;;;5014488;28;20120;-53
2023/08/15 06:51:36;;;;;;;5.70;3.22;;;23.20;66.40;;;;;;5010846;28;20045;-53
2023/08/15 06:54:03;;;;;;;7.00;3.30;;;23.20;66.60;;;;;;5010899;28;20048;-53
2023/08/15 06:56:30;;;;;;;5.28;2.95;;;23.30;66.40;;;;;;5010745;28;20049;-51
2023/08/15 06:58:57;;;;;;;8.25;3.83;;;23.30;66.20;;;;;;5016317;28;20045;-51
2023/08/15 07:01:24;;;;;;;7.93;2.80;;;23.30;66.00;;;;;;5001634;28;20108;-52
2023/08/15 07:03:51;;;;;;;7.47;3.97;;;23.40;65.90;;;;;;5010624;28;20556;-53
2023/08/15 07:06:18;;;;;;;4.20;3.13;;;23.40;66.20;;;;;;5010873;28;20042;-51
2023/08/15 07:08:46;;;;;;;6.20;2.88;;;23.40;66.00;;;;;;5011394;28;20121;-52
2023/08/15 07:11:12;;;;;;;8.68;3.67;;;23.50;65.90;;;;;;5003495;28;20077;-51
2023/08/15 07:13:39;;;;;;;5.15;3.35;;;23.60;65.90;;;;;;5004447;28;20034;-51
2023/08/15 07:16:06;;;;;;;4.68;3.10;;;23.60;65.80;;;;;;5005606;28;20128;-53
2023/08/15 07:18:32;;;;;;;5.80;3.03;;;23.60;65.60;;;;;;5011094;28;20124;-53
2023/08/15 07:21:01;;;;;;;5.65;2.75;;;23.70;65.50;;;;;;5010345;28;20121;-49
2023/08/15 07:23:29;;;;;;;3.65;2.85;;;23.80;66.00;;;;;;4997233;28;20042;-50
2023/08/15 07:25:55;;;;;;;6.22;3.30;;;23.80;65.40;;;;;;5014949;28;20037;-51
2023/08/15 07:28:22;;;;;;;9.95;3.15;;;23.80;65.20;;;;;;5010453;28;20234;-53
2023/08/15 07:30:49;;;;;;;4.57;2.38;;;23.90;64.90;;;;;;5008930;28;20042;-52
2023/08/15 07:33:16;;;;;;;2.50;2.30;;;23.90;64.70;;;;;;5000551;28;20116;-53
2023/08/15 07:35:43;;;;;;;4.15;2.25;;;24.00;64.90;;;;;;5010014;28;20046;-52
2023/08/15 07:38:10;;;;;;;6.03;2.80;;;24.00;65.10;;;;;;5012961;28;20049;-53
2023/08/15 07:40:36;;;;;;;4.88;2.47;;;24.00;64.50;;;;;;5006692;28;20121;-51
2023/08/15 07:43:03;;;;;;;5.28;2.53;;;24.10;64.80;;;;;;5010126;28;20042;-53
2023/08/15 07:45:30;;;;;;;4.57;2.42;;;24.10;64.60;;;;;;5009522;28;20049;-48
2023/08/15 07:47:58;;;;;;;7.15;2.70;;;24.10;64.20;;;;;;5013140;28;20404;-53
2023/08/15 07:50:28;;;;;;;4.03;2.35;;;24.20;64.00;;;;;;4988431;28;20041;-53
2023/08/15 07:52:58;;;;;;;5.07;2.40;;;24.20;64.20;;;;;;5005365;28;20129;-52
2023/08/15 07:55:25;;;;;;;5.28;2.53;;;24.20;63.80;;;;;;5006371;28;20214;-51
2023/08/15 07:57:55;;;;;;;3.42;2.35;;;24.30;63.70;;;;;;5010515;28;20045;-51
2023/08/15 08:00:22;;;;;;;3.95;2.88;;;24.30;63.70;;;;;;5004790;28;20089;-53
2023/08/15 08:02:49;;;;;;;7.15;2.95;;;24.30;63.50;;;;;;5004961;28;20407;-52
2023/08/15 08:05:16;;;;;;;6.80;2.60;;;24.30;63.20;;;;;;5006981;28;20046;-53
2023/08/15 08:07:44;;;;;;;2.88;2.63;;;24.40;63.40;;;;;;5010483;28;20052;-52
2023/08/15 08:10:11;;;;;;;6.15;2.60;;;24.40;63.10;;;;;;4996369;28;20070;-49
2023/08/15 08:12:38;;;;;;;5.18;2.58;;;24.40;63.70;;;;;;5009871;28;20073;-53
2023/08/15 08:15:05;;;;;;;6.63;2.67;;;24.40;63.10;;;;;;5011452;28;20045;-52
2023/08/15 08:17:32;;;;;;;4.13;2.58;;;24.50;63.40;;;;;;5005308;28;20046;-52
2023/08/15 08:19:58;;;;;;;4.18;2.30;;;24.50;63.40;;;;;;5008215;28;20550;-53
2023/08/15 08:22:25;;;;;;;5.70;2.55;;;24.50;63.30;;;;;;5007942;28;20042;-53
2023/08/15 08:24:54;;;;;;;4.28;2.17;;;24.60;63.30;;;;;;5009580;28;20061;-53
2023/08/15 08:27:21;;;;;;;4.85;2.10;;;24.60;63.20;;;;;;5009812;28;20065;-53
2023/08/15 08:29:48;;;;;;;3.67;2.13;;;24.70;63.50;;;;;;5010254;28;20530;-53
2023/08/15 08:32:14;;;;;;;4.32;2.67;;;24.70;62.70;;;;;;4995412;28;20054;-50
2023/08/15 08:34:41;;;;;;;6.80;2.40;;;24.80;62.60;;;;;;5005370;28;20057;-53
2023/08/15 08:37:08;;;;;;;4.07;2.00;;;24.80;62.00;;;;;;4994943;28;20042;-53
2023/08/15 08:39:34;;;;;;;6.45;2.22;;;24.90;62.10;;;;;;5008719;28;20412;-50
2023/08/15 08:42:01;;;;;;;4.15;1.98;;;24.90;61.90;;;;;;5002798;28;20386;-51
2023/08/15 08:44:31;;;;;;;2.67;2.10;;;25.00;61.90;;;;;;5005160;28;20046;-52
2023/08/15 08:46:59;;;;;;;4.28;1.83;;;25.00;61.70;;;;;;4987745;28;20073;-52
2023/08/15 08:49:27;;;;;;;3.55;2.10;;;25.10;62.00;;;;;;5012182;28;20073;-52
2023/08/15 08:51:56;;;;;;;3.72;2.45;;;25.10;62.00;;;;;;5000184;28;20044;-51
2023/08/15 08:54:23;;;;;;;3.95;2.40;;;25.20;62.20;;;;;;5009010;28;20432;-53
2023/08/15 08:57:11;;;;;;;5.55;2.20;;;25.20;61.60;;;;;;5007529;28;20046;-53
2023/08/15 08:59:42;;;;;;;3.35;2.13;;;25.30;61.10;;;;;;5007697;28;20106;-51
2023/08/15 09:02:12;;;;;;;8.63;2.97;;;25.30;60.30;;;;;;5002767;28;20050;-53
2023/08/15 09:04:40;;;;;;;3.85;2.00;;;25.30;59.80;;;;;;5008193;28;20523;-53
2023/08/15 09:07:07;;;;;;;5.28;3.08;;;25.40;60.60;;;;;;5009428;28;20485;-53
2023/08/15 09:09:34;;;;;;;5.10;2.85;;;25.40;60.00;;;;;;5007178;28;20069;-52
2023/08/15 09:12:01;;;;;;;5.32;2.58;;;25.50;60.40;;;;;;5008966;28;20066;-53
2023/08/15 09:14:28;;;;;;;5.75;2.90;;;25.50;60.10;;;;;;5000274;28;20034;-51
2023/08/15 09:16:55;;;;;;;4.63;2.25;;;25.60;59.90;;;;;;5007695;28;20048;-53
2023/08/15 09:19:21;;;;;;;3.70;2.65;;;25.60;59.60;;;;;;5009885;28;20128;-53
2023/08/15 09:21:48;;;;;;;2.97;1.90;;;25.70;59.30;;;;;;5008578;28;20126;-52
2023/08/15 09:24:15;;;;;;;3.22;1.48;;;25.80;59.30;;;;;;5008375;28;20042;-51
2023/08/15 09:26:42;;;;;;;3.83;1.55;;;25.90;60.00;;;;;;5007654;28;20046;-53
2023/08/15 09:29:12;;;;;;;2.25;1.58;;;25.90;60.60;;;;;;5011103;28;20514;-53
2023/08/15 09:31:39;;;;;;;3.38;1.92;;;26.10;60.70;;;;;;4998099;28;20137;-53
2023/08/15 09:34:10;;;;;;;3.90;1.63;;;26.20;59.90;;;;;;5012641;28;20680;-52
2023/08/15 09:36:37;;;;;;;3.08;1.70;;;26.30;59.80;;;;;;5011969;28;20567;-53
2023/08/15 09:39:08;;;;;;;2.50;1.88;;;26.40;59.90;;;;;;5015213;28;20073;-53
2023/08/15 09:41:39;;;;;;;4.70;2.53;;;26.60;59.50;;;;;;5004854;28;20042;-52
2023/08/15 09:44:06;;;;;;;3.22;1.80;;;26.70;57.30;;;;;;5012775;28;20475;-53
2023/08/15 09:46:33;;;;;;;6.07;1.90;;;26.80;57.40;;;;;;5011984;28;20046;-52
2023/08/15 09:49:00;;;;;;;3.58;2.17;;;26.80;57.50;;;;;;5016955;28;20039;-52
2023/08/15 09:51:28;;;;;;;2.38;1.67;;;27.00;58.20;;;;;;4997210;28;20076;-53
2023/08/15 09:53:56;;;;;;;5.18;1.85;;;27.10;57.80;;;;;;5012111;28;20045;-53
2023/08/15 09:56:23;;;;;;;3.05;1.90;;;27.10;58.00;;;;;;4995227;28;20054;-53
2023/08/15 09:58:49;;;;;;;4.65;1.50;;;27.20;56.90;;;;;;5052941;23;20087;-53
2023/08/15 10:01:19;;;;;;;2.05;1.48;;;27.40;56.70;;;;;;5023112;28;20041;-53
2023/08/15 10:03:49;;;;;;;3.90;1.58;;;27.40;55.50;;;;;;5027805;28;20109;-50
2023/08/15 10:06:16;;;;;;;3.00;1.58;;;27.40;55.90;;;;;;5031477;28;20639;-52
2023/08/15 10:08:45;;;;;;;5.82;2.15;;;27.40;55.70;;;;;;5029839;28;20056;-51
2023/08/15 10:11:13;;;;;;;3.53;1.40;;;27.40;55.30;;;;;;5031406;28;20044;-53
2023/08/15 10:13:41;;;;;;;2.58;1.65;;;27.40;54.80;;;;;;5022974;28;20124;-51
2023/08/15 10:16:15;;;;;;;4.90;1.88;;;27.40;54.60;;;;;;5021534;28;20762;-53
2023/08/15 10:18:56;;;;;;;2.88;1.58;;;27.40;55.50;;;;;;5030250;28;20046;-53
2023/08/15 10:21:23;;;;;;;3.67;1.65;;;27.40;55.00;;;;;;5023808;28;20180;-53
2023/08/15 10:23:53;;;;;;;2.17;1.45;;;27.40;55.10;;;;;;5021882;28;20045;-52
2023/08/15 10:26:21;;;;;;;3.45;2.15;;;27.40;55.20;;;;;;5025332;28;20515;-53
2023/08/15 10:28:48;;;;;;;2.08;1.50;;;27.40;55.50;;;;;;5030418;28;20091;-53
2023/08/15 10:31:34;;;;;;;3.28;2.92;;;27.50;55.10;;;;;;5027371;28;20069;-54
2023/08/15 10:34:02;;;;;;;2.53;2.17;;;27.50;54.80;;;;;;5019632;28;20072;-54
2023/08/15 10:36:30;;;;;;;3.88;1.80;;;27.60;55.10;;;;;;5020563;28;20466;-54
2023/08/15 10:39:05;;;;;;;2.50;1.50;;;27.60;54.60;;;;;;5031281;28;20041;-53
2023/08/15 10:41:34;;;;;;;3.65;1.90;;;27.70;54.80;;;;;;5024730;28;20041;-53
2023/08/15 10:44:05;;;;;;;3.75;1.83;;;27.80;54.70;;;;;;5020580;28;20038;-54
2023/08/15 10:46:34;;;;;;;3.42;1.70;;;27.90;53.30;;;;;;5027106;28;20655;-54
2023/08/15 10:49:06;;;;;;;3.45;1.42;;;28.00;54.60;;;;;;5030914;28;20125;-54
2023/08/15 10:51:35;;;;;;;3.65;2.45;;;28.10;53.60;;;;;;5023363;28;20041;-54
2023/08/15 10:54:07;;;;;;;1.70;1.60;;;28.10;53.00;;;;;;5024308;28;20069;-54
2023/08/15 10:56:39;;;;;;;3.90;1.90;;;28.20;52.70;;;;;;5026652;28;20041;-53
2023/08/15 10:59:09;;;;;;;3.80;1.38;;;28.20;52.00;;;;;;5026855;28;20733;-54
2023/08/15 11:01:37;;;;;;;2.58;1.45;;;28.30;52.10;;;;;;5030400;28;20030;-54
2023/08/15 11:04:09;;;;;;;3.40;1.70;;;28.30;51.70;;;;;;5022206;28;20038;-54
2023/08/15 11:06:52;;;;;;;2.35;1.33;;;28.30;52.20;;;;;;5028965;28;20041;-54
2023/08/15 11:09:26;;;;;;;1.88;1.40;;;28.30;54.10;;;;;;5028573;28;20124;-54
2023/08/15 11:11:52;;;;;;;3.58;1.70;;;28.40;53.90;;;;;;5028978;28;20048;-54
2023/08/15 11:14:19;;;;;;;6.75;1.42;;;28.40;52.80;;;;;;5024397;28;20121;-54
2023/08/15 11:16:48;;;;;;;2.60;1.45;;;28.50;52.50;;;;;;5026982;28;20503;-54
2023/08/15 11:19:17;;;;;;;2.17;1.60;;;28.70;52.00;;;;;;5025355;28;20065;-54
2023/08/15 11:21:43;;;;;;;2.35;1.38;;;28.80;51.70;;;;;;5027324;28;20048;-54
2023/08/15 11:24:10;;;;;;;4.00;1.52;;;28.90;51.50;;;;;;5027487;28;20072;-54
2023/08/15 11:26:37;;;;;;;2.92;1.38;;;29.10;51.40;;;;;;5028332;28;20635;-53
2023/08/15 11:29:04;;;;;;;3.30;1.60;;;29.20;50.50;;;;;;5025281;28;20045;-54
2023/08/15 11:31:31;;;;;;;3.90;1.67;;;29.40;50.00;;;;;;5023964;28;20065;-54
2023/08/15 11:34:01;;;;;;;5.05;1.80;;;29.50;50.30;;;;;;5025152;28;20065;-54
2023/08/15 11:36:28;;;;;;;1.85;1.25;;;29.60;49.70;;;;;;5018535;28;20069;-50
2023/08/15 11:39:00;;;;;;;3.50;1.73;;;29.60;49.50;;;;;;5014665;28;21086;-54
2023/08/15 11:41:27;;;;;;;2.53;1.55;;;29.60;48.30;;;;;;5029619;28;20415;-52
2023/08/15 11:43:54;;;;;;;3.20;1.90;;;29.70;48.30;;;;;;5024784;28;20042;-53
2023/08/15 11:46:20;;;;;;;4.07;1.55;;;29.70;48.90;;;;;;5030583;28;20127;-54
2023/08/15 11:48:47;;;;;;;2.30;1.25;;;29.70;48.10;;;;;;5012847;28;20057;-54
2023/08/15 11:51:23;;;;;;;3.90;1.55;;;29.80;48.30;;;;;;5018317;28;20077;-54
2023/08/15 11:53:51;;;;;;;2.88;1.98;;;30.00;48.90;;;;;;5029195;28;20565;-54
2023/08/15 11:56:19;;;;;;;3.22;1.30;;;30.10;49.30;;;;;;5029110;28;20049;-53
2023/08/15 11:58:46;;;;;;;3.42;1.48;;;30.20;47.60;;;;;;5024238;28;20116;-54
2023/08/15 12:01:13;;;;;;;2.55;1.23;;;30.30;48.30;;;;;;5026726;28;20041;-54
2023/08/15 12:03:40;;;;;;;2.63;1.30;;;30.50;48.10;;;;;;5025690;28;20056;-54
2023/08/15 12:06:12;;;;;;;2.10;1.27;;;30.50;47.30;;;;;;5024844;28;20065;-54
2023/08/15 12:08:42;;;;;;;2.35;1.13;;;30.60;46.00;;;;;;5029702;28;20105;-54
2023/08/15 12:11:12;;;;;;;2.25;1.27;;;30.70;45.50;;;;;;5028647;28;20042;-54
2023/08/15 12:13:41;;;;;;;3.83;1.60;;;30.70;46.50;;;;;;5028831;28;20488;-54
2023/08/15 12:16:09;;;;;;;4.32;1.70;;;30.80;45.70;;;;;;5005082;28;20057;-54
2023/08/15 12:18:39;;;;;;;2.72;1.55;;;30.90;45.20;;;;;;5029267;28;20064;-54
2023/08/15 12:21:07;;;;;;;3.75;1.88;;;30.90;45.10;;;;;;5024850;28;20116;-53
2023/08/15 12:23:37;;;;;;;4.05;1.35;;;30.90;45.00;;;;;;5025851;28;20060;-54
2023/08/15 12:26:03;;;;;;;2.42;1.25;;;31.00;44.80;;;;;;5025738;28;20458;-54
2023/08/15 12:28:30;;;;;;;2.58;1.30;;;31.00;45.50;;;;;;5028359;28;20041;-54
2023/08/15 12:30:57;;;;;;;2.83;1.38;;;31.00;45.10;;;;;;5029012;28;20052;-53
2023/08/15 12:33:24;;;;;;;3.63;1.00;;;31.00;45.10;;;;;;5025652;28;20123;-54
2023/08/15 12:35:53;;;;;;;4.82;1.45;;;31.00;45.60;;;;;;5009550;28;20088;-54
2023/08/15 12:38:20;;;;;;;3.38;1.35;;;31.00;45.70;;;;;;5026557;28;20479;-55
2023/08/15 12:40:46;;;;;;;3.53;1.75;;;31.00;44.80;;;;;;5029233;28;20041;-54
2023/08/15 12:43:13;;;;;;;1.35;1.08;;;31.00;44.90;;;;;;5024083;28;20139;-54
2023/08/15 12:45:40;;;;;;;3.55;1.75;;;31.10;45.40;;;;;;5028899;28;20057;-54
2023/08/15 12:48:07;;;;;;;2.78;1.35;;;31.10;44.80;;;;;;5011986;28;20504;-54
2023/08/15 12:50:33;;;;;;;4.10;1.70;;;31.10;44.40;;;;;;5012808;28;20044;-53
2023/08/15 12:53:00;;;;;;;1.45;1.35;;;30.90;44.50;;;;;;5027431;28;20065;-54
2023/08/15 12:55:27;;;;;;;3.33;1.30;;;31.00;45.40;;;;;;5029674;28;20508;-54
2023/08/15 12:57:53;;;;;;;3.60;1.23;;;31.00;45.40;;;;;;5027023;28;20462;-54